Airfield :
LOGIN :

Register | Disclaimer

   EN    FR    IT 

 










Legend :    VFR   Marginal VFR   IFR   Intensive IFR   Very Intensive IFR
Visi :
Ceiling :
>= 8 km
>= 3000ft
5 to 8 km
1000 to 3000 ft
1500m to 5 km
500 to 1000 ft
800 to 1500m
200 to 500 ft
< 800m
< 200 ft
Symbols :   Thunderstorms  Fog  Heavy snow  Heavy precipitations  Wind > 20 kt
SIGMETs :     Misc.  Thunderstorms  Icing  Turbulence  Mountain Waves  Volcanic Ashes







- Airport Elevation : 915 ft
- IATA code : LUG


LSZA - Lugano

CURRENT METAR :
  • 200520Z VRB02KT CAVOK 15/15 Q1021 NOSIG

EXPIRED METARs :
  • 200450Z 01001KT CAVOK 15/15 Q1021 NOSIG
  • 200420Z VRB01KT CAVOK 15/15 Q1021 NOSIG
  • 200350Z AUTO VRB01KT CAVOK 16/15 Q1021
  • 200320Z AUTO VRB01KT 8000 NCD 15/15 Q1021
  • 200250Z AUTO VRB01KT 9000 NCD 15/15 Q1021

TAF TAF LSZA
Valid from the 20 at 03:00 until the 20 at 12:00 UTC


200225Z 2003/2012 VRB03KT 7000 NSC
PROB40
TEMPO 2003/2007 4000 BR
BECMG 2007/2009 CAVOK
BECMG 2010/2012 9999 FEW045
ATIS : +41 22 417 40 88
No reported NOTAMs for that airfield.



MET'MAP, your aeronautical weather chart ! - Copyright ORBIFLY December 2007 - Disclaimer

ORBIFLY MET'MAP TEAM :

Programming & Development : Alexandra Zaïnal
Concept & Development : Baudouin d'Aumeries
Co-Development & Prog : Marc-Olivier Méhu
Technical & hardware support : Manuel Goepfert

Contact : metmap@orbifly.com




SOURCES & CREDITS :

   NOAA